Time;durP1;ratioP1;P1;durP2;ratioP2;P2;SDS_P1;SDS_P2;PMS_P1;PMS_P2;Temp;Humidity;BMP_temperature;BMP_pressure;BME280_temperature;BME280_humidity;BME280_pressure;Samples;Min_cycle;Max_cycle;Signal;HPM_P1;HPM_P2
2023/12/07 00:01:08;;;;;;;26.40;17.23;;;-6.70;95.10;;;;;;4956252;29;20126;-79
2023/12/07 00:03:33;;;;;;;39.53;19.67;;;-6.70;95.20;;;;;;4959737;29;20469;-81
2023/12/07 00:05:59;;;;;;;23.13;14.02;;;-6.70;95.40;;;;;;4941523;29;20039;-81
2023/12/07 00:08:25;;;;;;;34.20;17.63;;;-6.70;95.50;;;;;;4956591;29;20027;-78
2023/12/07 00:10:51;;;;;;;34.72;20.27;;;-6.70;95.40;;;;;;4955983;29;20058;-78
2023/12/07 00:13:17;;;;;;;33.70;19.02;;;-6.70;95.40;;;;;;4955238;28;20020;-79
2023/12/07 00:15:43;;;;;;;31.42;18.58;;;-6.70;95.30;;;;;;4955791;29;20023;-79
2023/12/07 00:18:09;;;;;;;29.52;17.60;;;-6.80;95.30;;;;;;4954997;29;20067;-79
2023/12/07 00:20:35;;;;;;;32.97;19.50;;;-6.80;95.50;;;;;;4955658;29;20023;-80
2023/12/07 00:23:01;;;;;;;36.17;21.58;;;-6.90;95.50;;;;;;4951020;29;20027;-80
2023/12/07 00:25:27;;;;;;;33.10;19.38;;;-6.80;95.60;;;;;;4943293;29;20545;-81
2023/12/07 00:27:53;;;;;;;32.20;17.75;;;-6.80;95.60;;;;;;4954221;29;20034;-81
2023/12/07 00:30:19;;;;;;;22.92;15.00;;;-6.90;95.50;;;;;;4956392;29;20086;-80
2023/12/07 00:32:45;;;;;;;29.33;17.33;;;-7.00;95.60;;;;;;4955652;29;20027;-80
2023/12/07 00:35:12;;;;;;;35.60;20.23;;;-7.00;95.60;;;;;;4955424;29;20460;-79
2023/12/07 00:37:38;;;;;;;33.45;19.00;;;-7.10;95.60;;;;;;4939874;29;20369;-80
2023/12/07 00:40:04;;;;;;;34.10;18.98;;;-7.10;95.60;;;;;;4959670;29;20027;-82
2023/12/07 00:42:30;;;;;;;33.50;15.20;;;-7.10;95.70;;;;;;4935736;29;20055;-81
2023/12/07 00:44:56;;;;;;;30.52;15.88;;;-7.10;95.80;;;;;;4954275;29;20301;-81
2023/12/07 00:47:23;;;;;;;34.58;19.60;;;-7.10;95.90;;;;;;4961080;29;20043;-80
2023/12/07 00:49:48;;;;;;;28.98;17.85;;;-7.10;96.10;;;;;;4964250;29;20042;-80
2023/12/07 00:52:14;;;;;;;36.00;20.33;;;-7.10;96.00;;;;;;4963034;29;20027;-79
2023/12/07 00:54:40;;;;;;;31.08;17.42;;;-7.10;95.90;;;;;;4960452;29;20023;-81
2023/12/07 00:57:06;;;;;;;34.90;19.52;;;-7.20;95.90;;;;;;4961702;29;20027;-80
2023/12/07 00:59:36;;;;;;;29.15;17.73;;;-7.20;95.90;;;;;;4955556;29;20030;-80
2023/12/07 01:02:03;;;;;;;30.60;18.77;;;-7.30;95.80;;;;;;4953562;29;20035;-80
2023/12/07 01:04:29;;;;;;;36.22;17.65;;;-7.40;95.90;;;;;;4957657;29;20042;-81
2023/12/07 01:06:55;;;;;;;30.73;20.73;;;-7.50;96.00;;;;;;4957517;29;20098;-78
2023/12/07 01:09:21;;;;;;;31.20;17.67;;;-7.50;96.10;;;;;;4956105;29;20060;-80
2023/12/07 01:11:48;;;;;;;28.25;16.92;;;-7.50;96.20;;;;;;4955745;29;20027;-81
2023/12/07 01:14:14;;;;;;;30.88;17.60;;;-7.50;96.20;;;;;;4954867;29;20027;-81
2023/12/07 01:16:40;;;;;;;33.50;20.27;;;-7.50;96.20;;;;;;4954017;29;20129;-80
2023/12/07 01:19:07;;;;;;;30.70;19.15;;;-7.60;96.20;;;;;;4955084;29;20466;-82
2023/12/07 01:21:33;;;;;;;27.10;18.50;;;-7.60;96.20;;;;;;4954893;29;20035;-83
2023/12/07 01:23:59;;;;;;;32.67;21.10;;;-7.70;96.40;;;;;;4953813;28;20047;-80
2023/12/07 01:26:25;;;;;;;31.10;18.77;;;-7.70;96.50;;;;;;4941991;29;20023;-80
2023/12/07 01:28:51;;;;;;;34.22;20.67;;;-7.60;96.60;;;;;;4955090;29;20031;-80
2023/12/07 01:31:17;;;;;;;26.42;16.55;;;-7.50;96.60;;;;;;4953814;29;20022;-81
2023/12/07 01:33:43;;;;;;;38.88;22.55;;;-7.50;96.40;;;;;;4971071;29;20032;-80
2023/12/07 01:36:10;;;;;;;31.10;17.98;;;-7.50;96.40;;;;;;4954594;29;20031;-81
2023/12/07 01:38:36;;;;;;;34.00;23.85;;;-7.60;96.40;;;;;;4954627;29;20024;-81
2023/12/07 01:41:02;;;;;;;35.13;17.38;;;-7.60;96.50;;;;;;4953561;29;20500;-81
2023/12/07 01:43:28;;;;;;;31.50;18.63;;;-7.60;96.60;;;;;;4942014;29;20534;-80
2023/12/07 01:45:56;;;;;;;28.10;15.63;;;-7.70;96.70;;;;;;4954225;29;20036;-80
2023/12/07 01:48:24;;;;;;;33.15;19.20;;;-7.60;96.80;;;;;;4953104;29;20440;-81
2023/12/07 01:50:51;;;;;;;29.52;17.08;;;-7.60;96.70;;;;;;4936928;29;20031;-81
2023/12/07 01:53:17;;;;;;;24.77;15.10;;;-7.60;96.60;;;;;;4933637;29;20032;-80
2023/12/07 01:55:45;;;;;;;24.33;13.50;;;-7.70;96.80;;;;;;4944556;29;20035;-81
2023/12/07 01:58:11;;;;;;;;;;;-7.70;96.60;;;;;;4954644;29;20030;-81
2023/12/07 02:00:36;;;;;;;31.27;21.33;;;-7.70;96.60;;;;;;4954317;29;19907;-80
2023/12/07 02:03:06;;;;;;;24.25;16.70;;;-7.70;96.70;;;;;;4956381;29;20034;-81
2023/12/07 02:05:32;;;;;;;26.48;16.25;;;-7.70;96.80;;;;;;4955009;29;20035;-81
2023/12/07 02:07:58;;;;;;;27.52;14.63;;;-7.70;96.90;;;;;;4954198;29;20058;-80
2023/12/07 02:10:25;;;;;;;30.40;17.38;;;-7.70;96.70;;;;;;4951006;29;20027;-81
2023/12/07 02:12:52;;;;;;;24.73;14.70;;;-7.70;96.70;;;;;;4948487;29;20023;-79
2023/12/07 02:15:19;;;;;;;27.70;15.32;;;-7.70;96.80;;;;;;4953984;29;20032;-81
2023/12/07 02:17:54;;;;;;;31.90;18.87;;;-7.70;96.90;;;;;;4954510;29;20110;-80
2023/12/07 02:20:33;;;;;;;27.80;15.85;;;-7.60;97.00;;;;;;4954443;29;20253;-80
2023/12/07 02:23:02;;;;;;;31.70;16.50;;;-7.50;96.90;;;;;;4958821;29;20031;-80
2023/12/07 02:25:54;;;;;;;39.30;18.40;;;-7.50;96.90;;;;;;4928881;29;20039;-80
2023/12/07 02:28:20;;;;;;;27.98;16.63;;;-7.50;96.80;;;;;;4925750;29;20027;-81
2023/12/07 02:30:46;;;;;;;29.98;15.18;;;-7.40;96.70;;;;;;4956964;29;20031;-80
2023/12/07 02:33:12;;;;;;;22.88;15.00;;;-7.40;96.60;;;;;;4954705;29;20038;-82
2023/12/07 02:35:40;;;;;;;26.85;15.30;;;-7.40;96.60;;;;;;4954433;28;20031;-81
2023/12/07 02:38:07;;;;;;;32.33;19.48;;;-7.40;96.20;;;;;;4956694;28;20130;-80
2023/12/07 02:40:34;;;;;;;24.35;15.93;;;-7.40;95.90;;;;;;4957572;29;20031;-80
2023/12/07 02:43:01;;;;;;;31.30;17.08;;;-7.40;95.90;;;;;;4958048;29;20023;-82
2023/12/07 02:45:27;;;;;;;22.52;10.70;;;-7.50;95.90;;;;;;4937415;29;20039;-80
2023/12/07 02:47:53;;;;;;;30.42;18.90;;;-7.50;96.00;;;;;;4953318;29;20429;-80
2023/12/07 02:50:20;;;;;;;30.67;18.10;;;-7.50;95.50;;;;;;4957607;29;20081;-81
2023/12/07 02:52:46;;;;;;;27.75;16.85;;;-7.50;95.50;;;;;;4957753;29;20027;-82
2023/12/07 02:55:12;;;;;;;29.77;16.58;;;-7.60;95.40;;;;;;4956239;29;20027;-81
2023/12/07 02:57:37;;;;;;;26.20;16.77;;;-7.60;95.80;;;;;;4958007;29;20039;-81
2023/12/07 03:00:08;;;;;;;27.95;17.40;;;-7.60;96.00;;;;;;4956036;29;20118;-82
2023/12/07 03:02:39;;;;;;;30.48;18.52;;;-7.60;95.80;;;;;;4936981;29;20027;-81
2023/12/07 03:05:06;;;;;;;23.05;13.07;;;-7.60;95.90;;;;;;4952977;29;20034;-81
2023/12/07 03:07:32;;;;;;;26.92;16.27;;;-7.60;96.00;;;;;;4957264;29;20074;-81
2023/12/07 03:09:58;;;;;;;31.73;21.23;;;-7.60;96.10;;;;;;4955156;28;20047;-81
2023/12/07 03:12:24;;;;;;;30.50;18.27;;;-7.50;96.20;;;;;;4958549;29;20631;-79
2023/12/07 03:14:50;;;;;;;27.75;17.17;;;-7.50;96.00;;;;;;4942162;29;20063;-80
2023/12/07 03:17:16;;;;;;;29.08;17.65;;;-7.60;95.60;;;;;;4957945;29;20019;-81
2023/12/07 03:19:42;;;;;;;33.00;19.73;;;-7.70;95.50;;;;;;4956901;29;20062;-81
2023/12/07 03:22:08;;;;;;;28.60;17.55;;;-7.70;95.40;;;;;;4939546;29;20114;-79
2023/12/07 03:24:38;;;;;;;28.88;15.10;;;-7.70;95.60;;;;;;4951927;29;20070;-80
2023/12/07 03:27:04;;;;;;;29.30;21.23;;;-7.70;95.60;;;;;;4942394;28;20083;-80
2023/12/07 03:29:31;;;;;;;29.03;16.57;;;-7.70;95.40;;;;;;4939499;29;20031;-80
2023/12/07 03:31:57;;;;;;;29.65;17.88;;;-7.80;95.40;;;;;;4940361;29;20481;-80
2023/12/07 03:34:24;;;;;;;26.25;16.95;;;-7.90;95.50;;;;;;4957350;29;20034;-81
2023/12/07 03:36:50;;;;;;;16.73;9.98;;;-7.90;95.40;;;;;;4957249;29;20023;-79
2023/12/07 03:39:22;;;;;;;26.38;16.77;;;-8.00;95.60;;;;;;4956369;29;20456;-79
2023/12/07 03:41:48;;;;;;;29.92;18.17;;;-8.00;95.40;;;;;;4944890;29;20392;-82
2023/12/07 03:44:14;;;;;;;26.83;19.45;;;-8.10;95.60;;;;;;4958411;29;20113;-80
2023/12/07 03:46:40;;;;;;;30.95;17.00;;;-8.20;95.80;;;;;;4956558;29;20031;-81
2023/12/07 03:49:07;;;;;;;24.33;16.27;;;-8.20;96.00;;;;;;4955423;28;20055;-81
2023/12/07 03:51:36;;;;;;;25.55;16.00;;;-8.10;96.10;;;;;;4935856;29;20036;-81
2023/12/07 03:54:03;;;;;;;23.45;14.93;;;-8.00;96.40;;;;;;4947172;29;20078;-80
2023/12/07 03:56:30;;;;;;;27.67;19.08;;;-7.90;96.70;;;;;;4957158;29;20027;-81
2023/12/07 03:58:57;;;;;;;30.08;17.85;;;-7.80;96.70;;;;;;4957325;29;20031;-80
2023/12/07 04:01:24;;;;;;;26.92;16.02;;;-7.80;96.60;;;;;;4943584;29;20071;-80
2023/12/07 04:03:51;;;;;;;28.23;16.85;;;-7.70;96.40;;;;;;4960697;29;20067;-78
2023/12/07 04:06:18;;;;;;;26.08;16.33;;;-7.70;96.50;;;;;;4939460;29;20059;-78
2023/12/07 04:08:44;;;;;;;26.92;14.35;;;-7.60;96.40;;;;;;4963658;29;20023;-79
2023/12/07 04:11:10;;;;;;;34.63;18.23;;;-7.60;96.10;;;;;;4957316;29;20031;-81
2023/12/07 04:13:36;;;;;;;30.27;16.23;;;-7.60;96.00;;;;;;4958666;29;20473;-81
2023/12/07 04:16:05;;;;;;;30.90;17.52;;;-7.50;96.00;;;;;;4960634;29;20533;-81
2023/12/07 04:18:31;;;;;;;27.85;16.15;;;-7.50;96.20;;;;;;4956805;29;20042;-81
2023/12/07 04:20:57;;;;;;;29.10;16.70;;;-7.50;96.00;;;;;;4958296;29;20110;-79
2023/12/07 04:23:23;;;;;;;34.20;19.58;;;-7.50;95.90;;;;;;4956316;29;20031;-80
2023/12/07 04:25:49;;;;;;;30.75;15.68;;;-7.50;96.00;;;;;;4942134;29;20091;-80
2023/12/07 04:28:15;;;;;;;24.23;13.82;;;-7.50;95.90;;;;;;4954759;29;20046;-79
2023/12/07 04:30:41;;;;;;;29.27;17.58;;;-7.40;96.10;;;;;;4955793;29;20027;-81
2023/12/07 04:33:07;;;;;;;26.08;15.07;;;-7.40;96.10;;;;;;4937115;29;20110;-80
2023/12/07 04:35:34;;;;;;;30.13;15.48;;;-7.40;96.00;;;;;;4955514;29;20110;-80
2023/12/07 04:37:59;;;;;;;28.20;14.90;;;-7.40;96.00;;;;;;4955245;29;20011;-81
2023/12/07 04:40:26;;;;;;;25.55;14.10;;;-7.30;95.80;;;;;;4955481;29;20508;-80
2023/12/07 04:42:51;;;;;;;31.95;15.80;;;-7.40;95.50;;;;;;4954077;29;20023;-82
2023/12/07 04:45:18;;;;;;;26.98;14.23;;;-7.40;95.60;;;;;;4944173;29;20039;-82
2023/12/07 04:47:44;;;;;;;27.17;16.23;;;-7.40;95.60;;;;;;4931628;29;20040;-82
2023/12/07 04:50:10;;;;;;;65.45;19.95;;;-7.40;95.50;;;;;;4923648;29;20031;-80
2023/12/07 04:52:36;;;;;;;23.30;15.00;;;-7.30;95.80;;;;;;4935931;29;20028;-79
2023/12/07 04:55:02;;;;;;;27.98;16.17;;;-7.30;95.70;;;;;;4943183;29;20027;-80
2023/12/07 04:57:28;;;;;;;26.38;14.38;;;-7.40;95.50;;;;;;4938934;29;20036;-80
2023/12/07 04:59:54;;;;;;;26.02;15.80;;;-7.40;95.70;;;;;;4936834;29;20378;-82
2023/12/07 05:02:20;;;;;;;30.38;15.40;;;-7.30;95.60;;;;;;4936780;29;20379;-81
2023/12/07 05:04:46;;;;;;;24.10;15.68;;;-7.30;95.50;;;;;;4919070;29;20142;-82
2023/12/07 05:07:13;;;;;;;27.40;15.65;;;-7.30;95.50;;;;;;4919120;29;20024;-81
2023/12/07 05:09:40;;;;;;;26.42;15.18;;;-7.30;95.50;;;;;;4935172;29;20024;-81
2023/12/07 05:12:06;;;;;;;28.15;13.95;;;-7.30;95.50;;;;;;4937329;29;20037;-82
2023/12/07 05:14:32;;;;;;;28.90;14.25;;;-7.30;95.40;;;;;;4920748;29;20034;-81
2023/12/07 05:16:58;;;;;;;30.80;16.30;;;-7.30;95.30;;;;;;4942681;29;20027;-82
2023/12/07 05:19:25;;;;;;;25.27;13.43;;;-7.30;95.20;;;;;;4938519;29;20019;-82
2023/12/07 05:21:51;;;;;;;25.23;15.02;;;-7.30;95.10;;;;;;4937040;29;20036;-82
2023/12/07 05:24:17;;;;;;;30.33;16.73;;;-7.40;95.40;;;;;;4939942;29;20034;-81
2023/12/07 05:26:46;;;;;;;28.10;17.23;;;-7.40;95.40;;;;;;4940991;29;20308;-80
2023/12/07 05:29:12;;;;;;;29.55;16.83;;;-7.40;95.20;;;;;;4920406;29;20034;-82
2023/12/07 05:31:38;;;;;;;35.27;17.60;;;-7.50;94.80;;;;;;4937665;29;20023;-82
2023/12/07 05:34:05;;;;;;;23.88;12.85;;;-7.60;94.90;;;;;;4936139;29;20023;-82
2023/12/07 05:36:31;;;;;;;29.63;14.75;;;-7.60;94.80;;;;;;4922026;29;20016;-81
2023/12/07 05:38:57;;;;;;;31.98;16.13;;;-7.70;94.70;;;;;;4917816;29;20039;-82
2023/12/07 05:41:23;;;;;;;32.05;16.85;;;-7.80;94.80;;;;;;4927347;29;20039;-80
2023/12/07 05:43:49;;;;;;;28.27;14.38;;;-7.80;94.90;;;;;;4921322;29;20442;-81
2023/12/07 05:46:15;;;;;;;37.65;17.90;;;-7.80;95.10;;;;;;4926555;29;20051;-80
2023/12/07 05:48:41;;;;;;;27.20;13.60;;;-7.80;95.20;;;;;;4930656;29;20044;-82
2023/12/07 05:51:14;;;;;;;58.78;19.55;;;-7.80;95.20;;;;;;4936118;29;20559;-82
2023/12/07 05:53:43;;;;;;;45.83;19.50;;;-7.90;95.10;;;;;;4940147;29;20043;-83
2023/12/07 05:56:09;;;;;;;29.55;14.98;;;-7.90;95.10;;;;;;4936955;29;20028;-81
2023/12/07 05:58:35;;;;;;;32.78;16.67;;;-7.90;95.10;;;;;;4918217;29;20035;-83
2023/12/07 06:01:02;;;;;;;21.95;13.93;;;-7.90;95.10;;;;;;4923794;29;20024;-84
2023/12/07 06:03:29;;;;;;;24.38;15.68;;;-7.80;95.10;;;;;;4929707;29;20431;-84
2023/12/07 06:05:55;;;;;;;26.25;15.32;;;-7.90;95.10;;;;;;4919865;29;20048;-83
2023/12/07 06:08:22;;;;;;;21.30;12.23;;;-7.90;95.30;;;;;;4922291;29;20056;-85
2023/12/07 06:10:48;;;;;;;27.45;14.23;;;-7.90;95.00;;;;;;4918138;29;20749;-85
2023/12/07 06:13:14;;;;;;;22.42;15.52;;;-7.90;95.00;;;;;;4913430;29;20036;-85
2023/12/07 06:15:41;;;;;;;25.00;16.02;;;-7.90;95.10;;;;;;4915907;29;20031;-85
2023/12/07 06:18:07;;;;;;;26.58;13.65;;;-7.90;95.00;;;;;;4929267;29;20020;-83
2023/12/07 06:20:33;;;;;;;24.85;14.00;;;-7.90;94.90;;;;;;4921406;29;20032;-84
2023/12/07 06:22:59;;;;;;;24.02;13.10;;;-7.90;95.00;;;;;;4918215;29;20028;-85
2023/12/07 06:25:25;;;;;;;25.45;14.18;;;-7.90;95.00;;;;;;4931989;29;20182;-83
2023/12/07 06:27:51;;;;;;;31.20;16.02;;;-7.90;95.00;;;;;;4934234;29;20094;-83
2023/12/07 06:30:17;;;;;;;26.00;14.23;;;-7.80;95.00;;;;;;4936195;29;20020;-85
2023/12/07 06:32:44;;;;;;;24.08;14.40;;;-7.80;95.00;;;;;;4936640;29;20095;-84
2023/12/07 06:35:15;;;;;;;23.63;13.77;;;-7.80;94.80;;;;;;4935765;29;20028;-84
2023/12/07 06:37:41;;;;;;;26.48;14.70;;;-7.90;94.60;;;;;;4936559;29;20151;-85
2023/12/07 06:40:09;;;;;;;30.77;14.88;;;-7.90;94.60;;;;;;4920503;29;20026;-83
2023/12/07 06:42:36;;;;;;;33.78;17.25;;;-7.90;94.40;;;;;;4936845;29;20028;-83
2023/12/07 06:45:02;;;;;;;26.50;14.48;;;-7.90;94.50;;;;;;4927872;29;20107;-85
2023/12/07 06:47:28;;;;;;;26.45;16.35;;;-7.90;94.60;;;;;;4939345;29;20060;-85
2023/12/07 06:49:55;;;;;;;35.85;16.80;;;-7.90;94.50;;;;;;4932641;29;20068;-85
2023/12/07 06:52:21;;;;;;;27.98;16.15;;;-7.90;94.40;;;;;;4927903;29;20474;-84
2023/12/07 06:54:47;;;;;;;28.85;15.00;;;-7.90;94.50;;;;;;4937691;29;20032;-84
2023/12/07 06:57:13;;;;;;;30.75;16.48;;;-8.00;94.40;;;;;;4942019;29;20090;-86
2023/12/07 06:59:40;;;;;;;32.03;16.40;;;-7.90;94.60;;;;;;4937434;29;20055;-84
2023/12/07 07:02:06;;;;;;;;;;;-7.90;94.60;;;;;;4939750;29;20030;-86
2023/12/07 07:04:32;;;;;;;32.13;16.23;;;-7.90;94.70;;;;;;4939687;29;19910;-84
2023/12/07 07:06:58;;;;;;;31.08;15.05;;;-7.90;94.60;;;;;;4942194;29;20035;-85
2023/12/07 07:09:24;;;;;;;30.83;15.57;;;-7.90;94.70;;;;;;4940585;29;20020;-85
2023/12/07 07:11:51;;;;;;;26.73;15.32;;;-7.90;94.90;;;;;;4920075;29;20105;-84
2023/12/07 07:14:17;;;;;;;42.95;21.67;;;-7.80;95.00;;;;;;4933908;29;20027;-84
2023/12/07 07:16:43;;;;;;;29.05;16.13;;;-7.80;95.00;;;;;;4934380;29;20055;-85
2023/12/07 07:19:09;;;;;;;41.40;23.30;;;-7.70;94.90;;;;;;4936924;29;20040;-84
2023/12/07 07:21:34;;;;;;;36.13;18.52;;;-7.70;94.80;;;;;;4942244;29;20024;-83
2023/12/07 07:24:00;;;;;;;36.28;20.10;;;-7.70;94.80;;;;;;4947609;29;20024;-83
2023/12/07 07:26:26;;;;;;;31.15;18.52;;;-7.60;94.80;;;;;;4915625;29;20039;-84
2023/12/07 07:28:52;;;;;;;31.38;16.77;;;-7.60;94.80;;;;;;4943037;29;20115;-83
2023/12/07 07:31:19;;;;;;;37.28;16.58;;;-7.60;94.50;;;;;;4942199;29;20031;-84
2023/12/07 07:33:48;;;;;;;31.10;18.80;;;-7.70;94.40;;;;;;4939714;29;20071;-83
2023/12/07 07:36:15;;;;;;;28.90;17.23;;;-7.60;94.60;;;;;;4954181;29;20038;-84
2023/12/07 07:38:41;;;;;;;31.87;18.00;;;-7.60;94.60;;;;;;4947094;29;20098;-84
2023/12/07 07:41:07;;;;;;;31.27;16.70;;;-7.50;94.70;;;;;;4939460;29;20470;-85
2023/12/07 07:43:36;;;;;;;36.63;19.77;;;-7.40;94.90;;;;;;4941259;29;20067;-85
2023/12/07 07:46:04;;;;;;;33.65;17.30;;;-7.30;95.30;;;;;;4927579;29;20063;-84
2023/12/07 07:48:30;;;;;;;41.30;20.00;;;-7.20;94.90;;;;;;4936068;29;20036;-84
2023/12/07 07:50:56;;;;;;;32.85;17.77;;;-7.20;94.50;;;;;;4939637;29;20039;-85
2023/12/07 07:53:22;;;;;;;41.50;20.07;;;-7.20;94.10;;;;;;4938383;29;20016;-84
2023/12/07 07:55:48;;;;;;;40.20;24.13;;;-7.20;93.90;;;;;;4939217;29;20043;-83
2023/12/07 07:58:14;;;;;;;33.22;18.60;;;-7.20;93.30;;;;;;4923779;29;20023;-84
2023/12/07 08:00:40;;;;;;;36.08;17.63;;;-7.30;93.20;;;;;;4930216;29;20048;-84
2023/12/07 08:03:06;;;;;;;29.88;18.95;;;-7.30;93.10;;;;;;4943166;29;20043;-84
2023/12/07 08:05:33;;;;;;;22.50;12.13;;;-7.40;93.00;;;;;;4928023;29;20512;-83
2023/12/07 08:07:59;;;;;;;33.92;19.08;;;-7.40;93.70;;;;;;4934793;29;20343;-84
2023/12/07 08:10:25;;;;;;;37.28;19.20;;;-7.40;93.80;;;;;;4920443;29;20092;-84
2023/12/07 08:12:50;;;;;;;40.75;20.67;;;-7.30;93.90;;;;;;4938645;29;20027;-84
2023/12/07 08:15:16;;;;;;;28.00;17.45;;;-7.30;93.30;;;;;;4938437;29;20039;-84
2023/12/07 08:17:42;;;;;;;34.72;18.15;;;-7.30;93.30;;;;;;4944816;29;20030;-83
2023/12/07 08:20:15;;;;;;;35.47;18.88;;;-7.30;93.00;;;;;;4937932;29;20027;-84
2023/12/07 08:22:42;;;;;;;44.28;21.52;;;-7.40;93.10;;;;;;4920696;29;20024;-85
2023/12/07 08:25:09;;;;;;;30.90;19.27;;;-7.40;93.40;;;;;;4932598;29;20532;-83
2023/12/07 08:27:38;;;;;;;35.80;18.75;;;-7.30;93.50;;;;;;4936926;29;20059;-84
2023/12/07 08:30:05;;;;;;;29.38;19.70;;;-7.20;93.10;;;;;;4937285;29;20023;-84
2023/12/07 08:32:31;;;;;;;33.30;19.55;;;-7.30;93.10;;;;;;4936534;29;20034;-82
2023/12/07 08:34:57;;;;;;;33.70;18.38;;;-7.30;92.70;;;;;;4939093;29;20060;-84
2023/12/07 08:37:23;;;;;;;29.42;18.50;;;-7.30;92.90;;;;;;4938099;29;20035;-84
2023/12/07 08:39:49;;;;;;;44.20;19.98;;;-7.20;93.10;;;;;;4937311;29;20027;-83
2023/12/07 08:42:15;;;;;;;36.70;20.75;;;-7.10;93.20;;;;;;4937473;29;20034;-84
2023/12/07 08:44:42;;;;;;;35.88;22.58;;;-7.10;92.60;;;;;;4936929;29;20039;-87
2023/12/07 08:47:08;;;;;;;;;;;-7.10;92.20;;;;;;4937367;29;20035;-84
2023/12/07 08:49:34;;;;;;;33.38;22.95;;;-7.10;92.40;;;;;;4935865;29;19962;-83
2023/12/07 08:52:00;;;;;;;33.60;20.55;;;-7.10;92.50;;;;;;4925160;29;20023;-85
2023/12/07 08:54:25;;;;;;;31.60;15.30;;;-7.00;92.60;;;;;;4936928;29;20023;-84
2023/12/07 08:56:51;;;;;;;33.92;17.65;;;-7.00;92.50;;;;;;4936493;29;20031;-84
2023/12/07 08:59:17;;;;;;;39.15;21.08;;;-7.00;92.20;;;;;;4936837;29;20020;-84
2023/12/07 09:01:43;;;;;;;35.22;17.35;;;-7.00;92.40;;;;;;4937743;29;20023;-85
2023/12/07 09:04:09;;;;;;;35.47;19.45;;;-7.00;92.30;;;;;;4937849;29;20046;-85
2023/12/07 09:06:36;;;;;;;34.72;19.25;;;-6.90;92.30;;;;;;4935362;29;20424;-84
2023/12/07 09:09:04;;;;;;;34.33;20.20;;;-6.80;92.40;;;;;;4936627;29;20028;-85
2023/12/07 09:11:31;;;;;;;43.70;23.05;;;-6.70;92.40;;;;;;4937237;29;20059;-85
2023/12/07 09:13:57;;;;;;;26.90;14.70;;;-6.60;91.80;;;;;;4921610;29;20111;-85
2023/12/07 09:16:23;;;;;;;30.23;17.48;;;-6.50;92.20;;;;;;4920657;29;20036;-85
2023/12/07 09:18:50;;;;;;;27.95;17.60;;;-6.30;92.30;;;;;;4920941;29;20354;-85
2023/12/07 09:21:16;;;;;;;29.70;18.25;;;-6.10;92.50;;;;;;4939487;29;20035;-83
2023/12/07 09:23:42;;;;;;;29.55;20.35;;;-5.90;91.90;;;;;;4931741;29;20064;-85
2023/12/07 09:26:09;;;;;;;32.55;16.88;;;-5.70;91.60;;;;;;4923382;29;20435;-86
2023/12/07 09:28:35;;;;;;;;;;;-5.60;91.30;;;;;;4929541;29;20028;-85
2023/12/07 09:31:01;;;;;;;32.05;17.13;;;-5.50;91.60;;;;;;4924499;29;20003;-86
2023/12/07 09:33:27;;;;;;;30.80;19.85;;;-5.40;91.60;;;;;;4938226;29;20068;-83
2023/12/07 09:35:53;;;;;;;31.38;20.17;;;-5.30;91.50;;;;;;4935842;29;20034;-85
2023/12/07 09:38:19;;;;;;;28.67;18.38;;;-5.20;91.80;;;;;;4935632;29;20025;-85
2023/12/07 09:40:46;;;;;;;33.00;21.35;;;-5.20;90.60;;;;;;4937365;29;20138;-84
2023/12/07 09:43:12;;;;;;;29.85;18.83;;;-5.20;90.60;;;;;;4936902;29;20363;-85
2023/12/07 09:45:38;;;;;;;28.83;17.65;;;-5.30;90.40;;;;;;4920469;29;20047;-85
2023/12/07 09:48:05;;;;;;;31.88;18.70;;;-5.50;90.00;;;;;;4952486;29;20234;-84
2023/12/07 09:50:31;;;;;;;31.23;14.68;;;-5.70;90.10;;;;;;4954422;29;20031;-84
2023/12/07 09:52:58;;;;;;;39.83;25.20;;;-5.90;90.60;;;;;;4954610;29;20032;-84
2023/12/07 09:55:24;;;;;;;;;;;-6.20;90.10;;;;;;4921555;29;20370;-84
2023/12/07 09:57:51;;;;;;;31.27;18.10;;;-6.50;90.20;;;;;;4913850;29;20364;-84
2023/12/07 10:00:18;;;;;;;35.83;17.35;;;-6.60;90.60;;;;;;4937109;29;20024;-86
2023/12/07 10:02:46;;;;;;;32.17;19.50;;;-6.80;90.20;;;;;;4937656;29;20035;-85
2023/12/07 10:05:13;;;;;;;38.15;18.60;;;-6.90;91.00;;;;;;4935745;29;20040;-86
2023/12/07 10:07:50;;;;;;;30.20;17.85;;;-6.90;91.70;;;;;;4936979;29;20094;-86
2023/12/07 10:10:17;;;;;;;32.67;18.95;;;-6.80;91.60;;;;;;4940153;29;20051;-86
2023/12/07 10:12:52;;;;;;;;;;;-6.70;91.30;;;;;;4931797;29;20035;-84
2023/12/07 10:15:20;;;;;;;35.92;22.50;;;-6.70;91.60;;;;;;4935480;29;19965;-84
2023/12/07 10:18:07;;;;;;;31.27;19.70;;;-6.60;91.70;;;;;;4939302;29;20039;-85
2023/12/07 10:20:33;;;;;;;40.88;23.95;;;-6.50;91.30;;;;;;4942112;29;20027;-84
2023/12/07 10:23:07;;;;;;;40.65;22.85;;;-6.50;90.70;;;;;;4923954;29;20028;-86
2023/12/07 10:25:38;;;;;;;36.10;20.35;;;-6.60;90.90;;;;;;4930420;29;20055;-85
2023/12/07 10:28:07;;;;;;;35.40;20.30;;;-6.70;90.80;;;;;;4924286;29;20020;-84
2023/12/07 10:30:34;;;;;;;37.65;22.80;;;-6.90;90.70;;;;;;4922203;29;20068;-85
2023/12/07 10:32:59;;;;;;;39.08;21.80;;;-6.80;91.20;;;;;;4949139;29;20032;-84
2023/12/07 10:35:25;;;;;;;39.28;22.55;;;-7.00;91.20;;;;;;4934841;29;20066;-83
2023/12/07 10:37:51;;;;;;;40.88;24.40;;;-7.00;91.10;;;;;;4951416;29;20478;-86
2023/12/07 10:40:20;;;;;;;35.63;20.25;;;-7.10;91.10;;;;;;4943567;29;20587;-86
2023/12/07 10:42:48;;;;;;;33.95;18.23;;;-7.20;91.40;;;;;;4934163;29;20051;-85
2023/12/07 10:45:18;;;;;;;37.85;20.20;;;-7.10;91.50;;;;;;4935568;29;20043;-83
2023/12/07 10:47:44;;;;;;;37.20;20.58;;;-7.20;91.50;;;;;;4935344;29;20058;-86
2023/12/07 10:50:13;;;;;;;33.87;19.77;;;-7.10;91.30;;;;;;4935132;29;20028;-86
2023/12/07 10:52:55;;;;;;;36.42;19.77;;;-7.20;91.30;;;;;;4935397;29;20026;-86
2023/12/07 10:55:25;;;;;;;25.65;15.85;;;-7.20;91.30;;;;;;4922679;29;20028;-86
2023/12/07 10:57:56;;;;;;;35.20;19.00;;;-7.20;91.60;;;;;;4936991;29;20083;-83
2023/12/07 11:00:28;;;;;;;45.22;24.13;;;-7.20;91.80;;;;;;4917333;29;20034;-86
2023/12/07 11:02:55;;;;;;;38.15;21.67;;;-7.30;91.60;;;;;;4915769;29;20024;-83
2023/12/07 11:05:21;;;;;;;37.73;23.13;;;-7.30;91.60;;;;;;4922204;29;20544;-85
2023/12/07 11:08:04;;;;;;;31.45;17.67;;;-7.50;91.40;;;;;;4943688;29;20024;-87
2023/12/07 11:10:50;;;;;;;39.67;19.80;;;-7.50;92.00;;;;;;4946236;29;20024;-85
2023/12/07 11:13:29;;;;;;;35.25;22.48;;;-7.50;92.50;;;;;;4943195;29;20430;-87
2023/12/07 11:15:57;;;;;;;39.97;21.98;;;-7.40;92.60;;;;;;4940298;29;20039;-85
2023/12/07 11:18:25;;;;;;;;;;;-7.50;92.10;;;;;;4923305;29;20028;-84
2023/12/07 11:20:52;;;;;;;33.33;19.60;;;-7.70;92.00;;;;;;4927094;29;19947;-86
2023/12/07 11:23:19;;;;;;;36.80;18.80;;;-7.90;91.90;;;;;;4922485;29;20096;-86
2023/12/07 11:25:46;;;;;;;34.88;18.10;;;-8.00;92.30;;;;;;4936986;29;20050;-85
2023/12/07 11:28:13;;;;;;;29.80;20.42;;;-8.00;92.50;;;;;;4919138;29;20115;-85
2023/12/07 11:30:44;;;;;;;34.72;18.65;;;-8.00;92.80;;;;;;4933362;29;20027;-84
2023/12/07 11:33:11;;;;;;;35.42;19.30;;;-8.00;92.60;;;;;;4925976;29;20027;-83
2023/12/07 11:36:02;;;;;;;37.70;19.17;;;-8.00;92.60;;;;;;4941007;29;20512;-84
2023/12/07 11:38:29;;;;;;;29.48;15.35;;;-8.00;92.80;;;;;;4908714;29;20080;-84
2023/12/07 11:40:56;;;;;;;29.93;17.00;;;-8.00;93.00;;;;;;4933623;29;20031;-85
2023/12/07 11:43:40;;;;;;;35.03;18.65;;;-7.90;93.10;;;;;;4924299;29;20046;-86
2023/12/07 11:46:09;;;;;;;39.80;20.65;;;-7.90;93.10;;;;;;4939019;29;20489;-85
2023/12/07 11:48:35;;;;;;;36.25;18.10;;;-7.90;93.00;;;;;;4938578;29;20449;-85
2023/12/07 11:51:01;;;;;;;30.85;18.13;;;-7.90;92.80;;;;;;4938702;29;20038;-84
2023/12/07 11:53:30;;;;;;;34.33;18.48;;;-7.90;92.80;;;;;;4939764;29;20111;-84
2023/12/07 11:55:57;;;;;;;36.13;18.75;;;-7.90;92.70;;;;;;4938736;29;20083;-83
2023/12/07 11:58:24;;;;;;;;;;;-7.80;92.80;;;;;;4939020;29;20046;-85
2023/12/07 12:00:52;;;;;;;35.25;21.92;;;-7.80;93.10;;;;;;4917022;29;19970;-86
2023/12/07 12:03:19;;;;;;;35.47;22.10;;;-7.90;92.60;;;;;;4934499;29;20071;-87
2023/12/07 12:05:45;;;;;;;;;;;-8.00;92.70;;;;;;4938288;29;20038;-86
2023/12/07 12:08:11;;;;;;;14.70;6.93;;;-8.10;92.80;;;;;;4938186;29;19993;-86
2023/12/07 12:10:40;;;;;;;32.58;19.27;;;-8.10;93.00;;;;;;4938798;29;20461;-83
2023/12/07 12:13:06;;;;;;;38.67;18.73;;;-8.10;93.10;;;;;;4924137;29;20032;-85
2023/12/07 12:15:32;;;;;;;31.98;16.08;;;-8.10;93.20;;;;;;4944391;29;20016;-85
2023/12/07 12:17:59;;;;;;;27.08;13.68;;;-8.00;93.50;;;;;;4947624;29;20056;-85
2023/12/07 12:20:26;;;;;;;29.05;16.92;;;-8.00;93.50;;;;;;4937947;29;20020;-85
2023/12/07 12:22:57;;;;;;;28.65;14.25;;;-8.00;93.70;;;;;;4937998;29;20035;-87
2023/12/07 12:25:25;;;;;;;29.15;17.05;;;-8.00;93.50;;;;;;4920459;29;20047;-85
2023/12/07 12:27:55;;;;;;;34.05;15.95;;;-8.00;93.70;;;;;;4937869;29;20410;-85
2023/12/07 12:30:22;;;;;;;25.55;17.08;;;-8.00;93.40;;;;;;4919239;29;20703;-86